createdAt,value
2022-11-27T00:02:18.308Z,2.00
2022-11-27T00:04:45.368Z,1.96
2022-11-27T00:07:12.161Z,2.04
2022-11-27T00:09:39.254Z,1.96
2022-11-27T00:12:06.580Z,2.08
2022-11-27T00:14:33.429Z,2.03
2022-11-27T00:17:01.161Z,2.12
2022-11-27T00:19:27.961Z,2.12
2022-11-27T00:21:54.770Z,2.11
2022-11-27T00:24:21.560Z,1.93
2022-11-27T00:26:49.952Z,2.09
2022-11-27T00:29:16.744Z,2.11
2022-11-27T00:31:43.587Z,2.10
2022-11-27T00:34:10.843Z,2.10
2022-11-27T00:36:38.046Z,2.07
2022-11-27T00:39:05.600Z,2.10
2022-11-27T00:41:32.971Z,2.08
2022-11-27T00:43:59.775Z,2.09
2022-11-27T00:46:29.296Z,2.04
2022-11-27T00:49:00.276Z,2.03
2022-11-27T00:51:27.321Z,2.02
2022-11-27T00:53:54.180Z,2.06
2022-11-27T00:56:23.394Z,2.08
2022-11-27T00:58:50.428Z,2.09
2022-11-27T01:01:25.693Z,2.08
2022-11-27T01:03:52.544Z,2.08
2022-11-27T01:06:19.950Z,2.03
2022-11-27T01:08:46.907Z,2.06
2022-11-27T01:11:25.903Z,2.04
2022-11-27T01:13:52.857Z,1.97
2022-11-27T01:16:21.742Z,1.98
2022-11-27T01:18:49.221Z,1.88
2022-11-27T01:21:17.725Z,1.84
2022-11-27T01:23:44.660Z,1.90
2022-11-27T01:26:11.840Z,1.82
2022-11-27T01:28:39.827Z,1.87
2022-11-27T01:31:08.517Z,1.89
2022-11-27T01:33:35.326Z,1.85
2022-11-27T01:36:03.268Z,1.86
2022-11-27T01:38:30.806Z,1.85
2022-11-27T01:41:23.579Z,1.84
2022-11-27T01:43:53.450Z,1.84
2022-11-27T01:46:57.908Z,1.85
2022-11-27T01:49:25.699Z,1.88
2022-11-27T01:51:59.100Z,1.85
2022-11-27T01:54:29.645Z,1.96
2022-11-27T01:56:58.485Z,1.98
2022-11-27T01:59:25.293Z,2.06
2022-11-27T02:01:52.146Z,2.10
2022-11-27T02:04:19.389Z,2.14
2022-11-27T02:06:46.406Z,2.19
2022-11-27T02:09:13.265Z,2.22
2022-11-27T02:11:58.662Z,2.24
2022-11-27T02:14:44.948Z,2.24
2022-11-27T02:17:30.124Z,2.24
2022-11-27T02:19:59.929Z,2.24
2022-11-27T02:22:47.905Z,2.21
2022-11-27T02:25:28.130Z,2.11
2022-11-27T02:28:02.837Z,2.10
2022-11-27T02:30:30.741Z,2.05
2022-11-27T02:32:59.467Z,1.97
2022-11-27T02:35:40.048Z,1.90
2022-11-27T02:38:40.235Z,1.78
2022-11-27T02:41:14.461Z,1.69
2022-11-27T02:43:43.261Z,1.70
2022-11-27T02:46:10.241Z,1.64
2022-11-27T02:48:40.745Z,1.62
2022-11-27T02:51:07.485Z,1.67
2022-11-27T02:53:51.915Z,1.64
2022-11-27T02:56:24.222Z,1.63
2022-11-27T02:58:51.095Z,1.66
2022-11-27T03:01:18.840Z,1.64
2022-11-27T03:03:46.961Z,1.66
2022-11-27T03:06:18.089Z,1.70
2022-11-27T03:08:51.840Z,1.73
2022-11-27T03:11:18.648Z,1.75
2022-11-27T03:13:53.690Z,1.77
2022-11-27T03:16:39.403Z,1.80
2022-11-27T03:19:19.842Z,1.83
2022-11-27T03:21:51.448Z,1.86
2022-11-27T03:24:18.317Z,1.88
2022-11-27T03:26:45.147Z,1.90
2022-11-27T03:29:14.833Z,1.79
2022-11-27T03:31:41.756Z,1.97
2022-11-27T03:34:08.632Z,2.03
2022-11-27T03:36:35.466Z,1.97
2022-11-27T03:39:02.343Z,2.11
2022-11-27T03:41:53.841Z,2.14
2022-11-27T03:44:30.248Z,2.14
2022-11-27T03:47:18.828Z,2.18
2022-11-27T03:50:14.623Z,2.20
2022-11-27T03:53:21.295Z,2.22
2022-11-27T03:56:09.787Z,2.20
2022-11-27T03:58:43.418Z,2.19
2022-11-27T04:01:11.747Z,2.26
2022-11-27T04:03:38.769Z,2.26
2022-11-27T04:06:05.824Z,2.26
2022-11-27T04:08:32.734Z,2.22
2022-11-27T04:10:59.602Z,2.34
2022-11-27T04:13:26.410Z,2.36
2022-11-27T04:15:53.382Z,2.33
2022-11-27T04:18:20.234Z,2.31
2022-11-27T04:20:47.052Z,2.37
2022-11-27T04:23:13.886Z,2.35
2022-11-27T04:25:40.673Z,2.39
2022-11-27T04:28:07.464Z,2.32
2022-11-27T04:30:34.247Z,2.33
2022-11-27T04:33:01.068Z,2.40
2022-11-27T04:35:28.069Z,2.41
2022-11-27T04:37:56.405Z,2.41
2022-11-27T04:40:23.149Z,2.31
2022-11-27T04:42:50.765Z,2.42
2022-11-27T04:45:17.663Z,2.43
2022-11-27T04:47:44.444Z,2.42
2022-11-27T04:50:11.592Z,2.39
2022-11-27T04:52:38.392Z,2.42
2022-11-27T04:55:05.552Z,2.42
2022-11-27T04:57:32.405Z,2.41
2022-11-27T04:59:59.265Z,2.38
2022-11-27T05:02:26.126Z,2.36
2022-11-27T05:04:53.007Z,2.33
2022-11-27T05:07:19.796Z,2.30
2022-11-27T05:09:46.655Z,2.26
2022-11-27T05:12:13.426Z,2.20
2022-11-27T05:14:40.494Z,2.24
2022-11-27T05:17:07.509Z,2.28
2022-11-27T05:19:34.370Z,2.24
2022-11-27T05:22:01.190Z,2.25
2022-11-27T05:24:28.598Z,2.25
2022-11-27T05:26:56.092Z,2.33
2022-11-27T05:29:23.143Z,2.28
2022-11-27T05:31:50.027Z,2.27
2022-11-27T05:34:16.927Z,2.15
2022-11-27T05:36:43.825Z,2.14
2022-11-27T05:39:10.891Z,1.97
2022-11-27T05:41:38.912Z,1.82
2022-11-27T05:44:05.809Z,1.59
2022-11-27T05:46:33.027Z,1.38
2022-11-27T05:48:59.990Z,1.25
2022-11-27T05:51:26.827Z,1.09
2022-11-27T05:53:53.708Z,0.93
2022-11-27T05:56:20.490Z,0.79
2022-11-27T05:58:47.745Z,0.67
2022-11-27T06:01:15.122Z,0.57
2022-11-27T06:03:41.997Z,0.46
2022-11-27T06:06:10.064Z,0.35
2022-11-27T06:08:37.680Z,0.26
2022-11-27T06:11:08.870Z,0.07
2022-11-27T06:13:35.623Z,0.03
2022-11-27T06:16:19.978Z,0.02
2022-11-27T06:18:49.241Z,0.04
2022-11-27T06:21:16.668Z,0.09
2022-11-27T06:23:43.654Z,0.19
2022-11-27T06:26:12.039Z,0.28
2022-11-27T06:28:38.924Z,0.39
2022-11-27T06:31:17.720Z,0.51
2022-11-27T06:33:48.765Z,0.59
2022-11-27T06:36:15.944Z,0.60
2022-11-27T06:38:42.867Z,0.72
2022-11-27T06:41:14.583Z,0.75
2022-11-27T06:43:41.367Z,0.75
2022-11-27T06:46:09.532Z,0.71
2022-11-27T06:48:36.405Z,0.69
2022-11-27T06:51:04.743Z,0.68
2022-11-27T06:53:32.383Z,0.64
2022-11-27T06:55:59.251Z,0.67
2022-11-27T06:58:30.805Z,0.67
2022-11-27T07:01:02.284Z,0.71
2022-11-27T07:03:29.102Z,0.76
2022-11-27T07:05:55.867Z,0.85
2022-11-27T07:08:22.750Z,0.87
2022-11-27T07:10:49.641Z,0.90
2022-11-27T07:13:16.424Z,0.92
2022-11-27T07:15:43.480Z,0.91
2022-11-27T07:18:10.628Z,0.98
2022-11-27T07:20:37.550Z,1.01
2022-11-27T07:23:04.383Z,1.09
2022-11-27T07:25:31.180Z,1.29
2022-11-27T07:27:57.923Z,1.33
2022-11-27T07:30:24.761Z,1.51
2022-11-27T07:32:51.541Z,1.59
2022-11-27T07:35:18.683Z,1.75
2022-11-27T07:37:45.462Z,1.84
2022-11-27T07:40:14.871Z,1.94
2022-11-27T07:42:41.964Z,1.97
2022-11-27T07:45:09.272Z,2.06
2022-11-27T07:47:36.204Z,2.20
2022-11-27T07:50:03.109Z,2.38
2022-11-27T07:52:29.945Z,2.67
2022-11-27T07:54:56.788Z,2.90
2022-11-27T07:57:23.564Z,3.14
2022-11-27T07:59:50.383Z,3.18
2022-11-27T08:02:17.260Z,3.20
2022-11-27T08:04:44.514Z,3.08
2022-11-27T08:07:11.557Z,3.04
2022-11-27T08:09:40.046Z,3.01
2022-11-27T08:12:07.346Z,3.00
2022-11-27T08:14:34.230Z,2.92
2022-11-27T08:17:01.030Z,2.81
2022-11-27T08:19:27.898Z,2.90
2022-11-27T08:21:56.346Z,3.02
2022-11-27T08:24:23.143Z,3.13
2022-11-27T08:26:50.080Z,3.32
2022-11-27T08:29:16.954Z,3.47
2022-11-27T08:31:43.794Z,3.76
2022-11-27T08:34:10.627Z,3.93
2022-11-27T08:36:37.376Z,4.07
2022-11-27T08:39:04.161Z,4.20
2022-11-27T08:41:30.945Z,4.35
2022-11-27T08:43:57.779Z,4.45
2022-11-27T08:46:24.600Z,4.53
2022-11-27T08:48:51.458Z,4.66
2022-11-27T08:51:18.202Z,4.77
2022-11-27T08:53:45.936Z,4.84
2022-11-27T08:56:17.489Z,4.96
2022-11-27T08:58:44.517Z,5.03
2022-11-27T09:01:19.323Z,5.19
2022-11-27T09:03:46.526Z,5.26
2022-11-27T09:06:15.681Z,5.30
2022-11-27T09:08:42.880Z,5.36
2022-11-27T09:11:10.401Z,5.44
2022-11-27T09:13:37.415Z,5.46
2022-11-27T09:16:05.611Z,5.62
2022-11-27T09:18:32.646Z,5.66
2022-11-27T09:21:01.789Z,5.70
2022-11-27T09:23:29.261Z,5.68
2022-11-27T09:26:00.420Z,5.66
2022-11-27T09:28:31.369Z,5.71
2022-11-27T09:30:59.918Z,5.73
2022-11-27T09:33:27.677Z,5.72
2022-11-27T09:35:54.478Z,5.83
2022-11-27T09:38:21.337Z,5.88
2022-11-27T09:41:00.406Z,5.92
2022-11-27T09:43:32.050Z,5.94
2022-11-27T09:46:01.488Z,5.99
2022-11-27T09:48:39.559Z,6.01
2022-11-27T09:51:17.182Z,5.99
2022-11-27T09:53:47.700Z,6.08
2022-11-27T09:56:16.841Z,6.13
2022-11-27T09:58:49.623Z,6.24
2022-11-27T10:01:18.033Z,6.35
2022-11-27T10:03:45.828Z,6.45
2022-11-27T10:06:36.779Z,6.58
2022-11-27T10:09:21.759Z,6.71
2022-11-27T10:11:54.804Z,6.81
2022-11-27T10:14:28.167Z,6.95
2022-11-27T10:17:15.844Z,7.05
2022-11-27T10:20:16.803Z,7.13
2022-11-27T10:23:01.315Z,7.22
2022-11-27T10:25:41.287Z,7.28
2022-11-27T10:28:11.218Z,7.36
2022-11-27T10:30:42.660Z,7.43
2022-11-27T10:33:16.340Z,7.48
2022-11-27T10:35:43.156Z,7.53
2022-11-27T10:38:26.806Z,7.56
2022-11-27T10:41:07.837Z,7.61
2022-11-27T10:43:36.752Z,7.62
2022-11-27T10:46:33.002Z,7.64
2022-11-27T10:48:59.828Z,7.65
2022-11-27T10:51:32.600Z,7.65
2022-11-27T10:53:59.807Z,7.70
2022-11-27T10:57:14.513Z,7.70
2022-11-27T11:00:06.185Z,7.82
2022-11-27T11:02:34.536Z,7.88
2022-11-27T11:05:56.823Z,7.95
2022-11-27T11:08:21.168Z,7.89
2022-11-27T11:11:02.099Z,7.83
2022-11-27T11:13:31.147Z,7.83
2022-11-27T11:16:04.559Z,7.76
2022-11-27T11:18:32.516Z,7.81
2022-11-27T11:21:01.848Z,7.82
2022-11-27T11:23:38.668Z,7.86
2022-11-27T11:26:25.530Z,7.88
2022-11-27T11:28:57.137Z,7.93
2022-11-27T11:31:35.218Z,7.92
2022-11-27T11:34:12.829Z,7.97
2022-11-27T11:36:39.979Z,8.03
2022-11-27T11:39:07.094Z,8.12
2022-11-27T11:41:38.488Z,8.05
2022-11-27T11:44:05.610Z,8.26
2022-11-27T11:46:33.884Z,8.27
2022-11-27T11:49:08.689Z,8.31
2022-11-27T11:54:59.726Z,8.44
2022-11-27T11:58:10.446Z,8.47
2022-11-27T12:01:11.809Z,8.46
2022-11-27T12:03:58.697Z,8.47
2022-11-27T12:06:37.677Z,8.48
2022-11-27T12:09:39.764Z,8.46
2022-11-27T12:12:19.501Z,8.62
2022-11-27T12:14:55.028Z,8.70
2022-11-27T12:17:45.155Z,8.86
2022-11-27T12:20:49.388Z,8.97
2022-11-27T12:23:37.685Z,9.02
2022-11-27T12:26:27.332Z,9.01
2022-11-27T12:29:24.675Z,8.90
2022-11-27T12:32:09.972Z,8.74
2022-11-27T12:35:14.068Z,8.53
2022-11-27T12:37:48.578Z,8.34
2022-11-27T12:40:39.921Z,8.04
2022-11-27T12:43:25.923Z,7.75
2022-11-27T12:45:58.021Z,7.49
2022-11-27T12:48:30.101Z,7.18
2022-11-27T12:51:02.362Z,6.87
2022-11-27T12:53:36.985Z,6.74
2022-11-27T12:56:24.781Z,6.54
2022-11-27T12:59:11.341Z,6.37
2022-11-27T13:02:16.763Z,6.32
2022-11-27T13:04:50.190Z,6.25
2022-11-27T13:07:38.971Z,6.20
2022-11-27T13:10:24.184Z,6.14
2022-11-27T13:13:31.524Z,6.07
2022-11-27T13:16:01.175Z,5.89
2022-11-27T13:18:35.445Z,5.87
2022-11-27T13:21:04.635Z,5.74
2022-11-27T13:23:34.737Z,5.81
2022-11-27T13:26:04.176Z,5.81
2022-11-27T13:28:53.272Z,5.81
2022-11-27T13:31:28.648Z,5.77
2022-11-27T13:34:00.539Z,5.78
2022-11-27T13:36:35.915Z,5.72
2022-11-27T13:39:03.118Z,5.69
2022-11-27T13:41:35.371Z,5.72
2022-11-27T13:44:02.312Z,5.62
2022-11-27T13:46:30.998Z,5.63
2022-11-27T13:49:00.717Z,5.53
2022-11-27T13:51:32.565Z,5.41
2022-11-27T13:54:12.407Z,5.34
2022-11-27T13:56:39.346Z,5.23
2022-11-27T13:59:25.073Z,5.09
2022-11-27T14:02:03.297Z,4.98
2022-11-27T14:04:33.364Z,4.87
2022-11-27T14:07:03.475Z,4.76
2022-11-27T14:09:53.904Z,4.64
2022-11-27T14:12:31.063Z,4.50
2022-11-27T14:15:10.277Z,4.37
2022-11-27T14:17:41.838Z,4.29
2022-11-27T14:20:17.701Z,4.21
2022-11-27T14:23:14.118Z,4.13
2022-11-27T14:25:41.144Z,4.05
2022-11-27T14:28:26.467Z,4.00
2022-11-27T14:31:00.471Z,3.89
2022-11-27T14:33:47.319Z,3.86
2022-11-27T14:36:26.309Z,3.81
2022-11-27T14:38:53.253Z,3.80
2022-11-27T14:41:22.530Z,3.75
2022-11-27T14:43:49.502Z,3.67
2022-11-27T14:46:20.633Z,3.65
2022-11-27T14:48:57.964Z,3.61
2022-11-27T14:51:26.288Z,3.59
2022-11-27T14:53:57.121Z,3.60
2022-11-27T14:56:23.985Z,3.61
2022-11-27T14:58:52.287Z,3.62
2022-11-27T15:01:28.117Z,3.65
2022-11-27T15:04:02.681Z,3.63
2022-11-27T15:06:48.043Z,3.72
2022-11-27T15:09:31.761Z,3.66
2022-11-27T15:12:18.607Z,3.70
2022-11-27T15:14:52.214Z,3.69
2022-11-27T15:17:25.379Z,3.63
2022-11-27T15:19:52.196Z,3.63
2022-11-27T15:22:19.104Z,3.66
2022-11-27T15:24:45.958Z,3.59
2022-11-27T15:27:15.692Z,3.68
2022-11-27T15:30:10.504Z,3.67
2022-11-27T15:32:54.705Z,3.67
2022-11-27T15:35:33.561Z,3.67
2022-11-27T15:38:04.591Z,3.61
2022-11-27T15:40:33.551Z,3.68
2022-11-27T15:43:00.362Z,3.66
2022-11-27T15:45:28.335Z,3.69
2022-11-27T15:48:01.683Z,3.65
2022-11-27T15:50:31.304Z,3.65
2022-11-27T15:52:58.195Z,3.57
2022-11-27T15:55:25.133Z,3.65
2022-11-27T15:57:51.943Z,3.64
2022-11-27T16:00:19.433Z,3.54
2022-11-27T16:02:46.308Z,3.62
2022-11-27T16:05:13.163Z,3.61
2022-11-27T16:07:40.004Z,3.59
2022-11-27T16:10:07.563Z,3.58
2022-11-27T16:12:34.453Z,3.58
2022-11-27T16:15:01.304Z,3.58
2022-11-27T16:17:28.135Z,3.58
2022-11-27T16:19:55.090Z,3.58
2022-11-27T16:22:21.964Z,3.55
2022-11-27T16:24:48.900Z,3.55
2022-11-27T16:27:15.682Z,3.54
2022-11-27T16:29:43.063Z,3.48
2022-11-27T16:32:10.023Z,3.49
2022-11-27T16:34:36.975Z,3.39
2022-11-27T16:37:03.774Z,3.45
2022-11-27T16:39:30.675Z,3.35
2022-11-27T16:41:57.502Z,3.39
2022-11-27T16:44:24.303Z,3.37
2022-11-27T16:46:51.085Z,3.36
2022-11-27T16:49:17.894Z,3.33
2022-11-27T16:51:44.712Z,3.29
2022-11-27T16:54:12.464Z,3.31
2022-11-27T16:56:39.283Z,3.26
2022-11-27T16:59:08.761Z,3.30
2022-11-27T17:01:36.257Z,3.27
2022-11-27T17:04:04.968Z,3.26
2022-11-27T17:06:32.859Z,3.20
2022-11-27T17:09:00.907Z,3.31
2022-11-27T17:11:29.852Z,3.29
2022-11-27T17:13:57.557Z,3.31
2022-11-27T17:16:24.454Z,3.29
2022-11-27T17:18:51.249Z,3.33
2022-11-27T17:21:29.060Z,3.32
2022-11-27T17:23:56.881Z,3.25
2022-11-27T17:26:24.072Z,3.28
2022-11-27T17:28:51.212Z,3.26
2022-11-27T17:31:19.725Z,3.28
2022-11-27T17:33:46.923Z,3.19
2022-11-27T17:36:14.150Z,3.24
2022-11-27T17:38:40.967Z,3.20
2022-11-27T17:41:12.112Z,3.17
2022-11-27T17:43:39.234Z,3.14
2022-11-27T17:46:09.494Z,3.09
2022-11-27T17:48:36.445Z,3.03
2022-11-27T17:51:03.261Z,3.01
2022-11-27T17:53:30.044Z,2.92
2022-11-27T17:55:57.392Z,2.92
2022-11-27T17:58:24.163Z,2.88
2022-11-27T18:00:50.993Z,2.86
2022-11-27T18:03:17.769Z,2.85
2022-11-27T18:05:44.565Z,2.87
2022-11-27T18:08:11.288Z,2.89
2022-11-27T18:10:38.078Z,2.85
2022-11-27T18:13:04.876Z,2.91
2022-11-27T18:15:31.606Z,2.89
2022-11-27T18:17:59.210Z,2.90
2022-11-27T18:20:25.990Z,2.86
2022-11-27T18:22:52.805Z,2.83
2022-11-27T18:25:19.559Z,2.76
2022-11-27T18:27:46.356Z,2.80
2022-11-27T18:30:13.649Z,2.74
2022-11-27T18:32:40.425Z,2.73
2022-11-27T18:35:07.671Z,2.77
2022-11-27T18:37:35.535Z,2.73
2022-11-27T18:40:02.337Z,2.70
2022-11-27T18:42:30.662Z,2.75
2022-11-27T18:44:57.682Z,2.65
2022-11-27T18:47:24.608Z,2.72
2022-11-27T18:49:51.470Z,2.70
2022-11-27T18:52:18.381Z,2.69
2022-11-27T18:54:45.348Z,2.68
2022-11-27T18:57:12.287Z,2.61
2022-11-27T18:59:39.700Z,2.63
2022-11-27T19:02:07.015Z,2.61
2022-11-27T19:04:37.727Z,2.52
2022-11-27T19:07:04.616Z,2.53
2022-11-27T19:09:31.428Z,2.50
2022-11-27T19:11:58.248Z,2.47
2022-11-27T19:14:25.126Z,2.37
2022-11-27T19:16:52.407Z,2.36
2022-11-27T19:22:07.574Z,2.30
2022-11-27T19:24:34.486Z,2.33
2022-11-27T19:27:01.410Z,2.36
2022-11-27T19:29:28.288Z,2.34
2022-11-27T19:31:57.713Z,2.40
2022-11-27T19:34:24.609Z,2.30
2022-11-27T19:36:51.607Z,2.43
2022-11-27T19:39:18.600Z,2.44
2022-11-27T19:41:45.341Z,2.46
2022-11-27T19:44:12.622Z,2.45
2022-11-27T19:46:39.544Z,2.45
2022-11-27T19:49:08.535Z,2.46
2022-11-27T19:51:36.799Z,2.40
2022-11-27T19:54:09.949Z,2.48
2022-11-27T19:56:38.859Z,2.49
2022-11-27T19:59:06.080Z,2.41
2022-11-27T20:01:32.970Z,2.44
2022-11-27T20:04:00.087Z,2.41
2022-11-27T20:06:27.209Z,2.34
2022-11-27T20:08:57.308Z,2.31
2022-11-27T20:11:24.609Z,2.27
2022-11-27T20:13:52.212Z,2.20
2022-11-27T20:16:20.586Z,2.14
2022-11-27T20:18:47.534Z,2.08
2022-11-27T20:21:17.133Z,2.04
2022-11-27T20:23:44.382Z,1.97
2022-11-27T20:26:12.854Z,2.00
2022-11-27T20:28:42.895Z,1.95
2022-11-27T20:31:17.651Z,1.96
2022-11-27T20:33:44.575Z,1.92
2022-11-27T20:36:12.680Z,1.85
2022-11-27T20:38:39.519Z,1.96
2022-11-27T20:41:08.045Z,1.96
2022-11-27T20:43:35.663Z,1.90
2022-11-27T20:46:02.735Z,2.01
2022-11-27T20:48:29.864Z,2.03
2022-11-27T20:50:56.628Z,2.05
2022-11-27T20:53:23.446Z,2.04
2022-11-27T20:55:50.226Z,2.09
2022-11-27T20:58:17.116Z,2.12
2022-11-27T21:00:43.963Z,2.10
2022-11-27T21:03:10.827Z,2.18
2022-11-27T21:05:38.781Z,2.20
2022-11-27T21:08:05.709Z,2.19
2022-11-27T21:10:32.547Z,2.24
2022-11-27T21:12:59.284Z,2.26
2022-11-27T21:15:26.048Z,2.26
2022-11-27T21:17:52.768Z,2.27
2022-11-27T21:20:20.763Z,2.22
2022-11-27T21:22:47.543Z,2.25
2022-11-27T21:25:14.328Z,2.23
2022-11-27T21:27:41.133Z,2.25
2022-11-27T21:30:08.521Z,2.16
2022-11-27T21:32:35.351Z,2.22
2022-11-27T21:35:02.122Z,2.18
2022-11-27T21:37:28.888Z,2.19
2022-11-27T21:39:55.605Z,2.21
2022-11-27T21:42:22.411Z,2.17
2022-11-27T21:44:49.174Z,2.16
2022-11-27T21:47:16.019Z,2.14
2022-11-27T21:49:42.874Z,2.17
2022-11-27T21:52:09.592Z,2.14
2022-11-27T21:54:36.598Z,2.10
2022-11-27T21:57:03.440Z,2.13
2022-11-27T21:59:30.213Z,2.10
2022-11-27T22:01:57.529Z,2.13
2022-11-27T22:04:24.929Z,2.11
2022-11-27T22:06:52.773Z,2.02
2022-11-27T22:09:19.616Z,2.09
2022-11-27T22:11:46.474Z,2.00
2022-11-27T22:14:14.174Z,1.95
2022-11-27T22:16:45.176Z,2.08
2022-11-27T22:19:14.354Z,2.08
2022-11-27T22:21:41.335Z,2.04
2022-11-27T22:24:12.176Z,2.09
2022-11-27T22:26:43.437Z,2.03
2022-11-27T22:29:10.224Z,2.08
2022-11-27T22:31:36.956Z,2.05
2022-11-27T22:34:03.887Z,2.02
2022-11-27T22:36:32.388Z,2.06
2022-11-27T22:39:00.437Z,2.06
2022-11-27T22:41:28.889Z,2.05
2022-11-27T22:43:55.624Z,2.04
2022-11-27T22:46:27.603Z,1.98
2022-11-27T22:49:00.572Z,1.93
2022-11-27T22:51:28.661Z,2.01
2022-11-27T22:53:55.543Z,2.01
2022-11-27T22:56:22.364Z,2.02
2022-11-27T22:58:49.181Z,2.02
2022-11-27T23:01:21.143Z,2.00
2022-11-27T23:03:48.161Z,1.98
2022-11-27T23:06:15.855Z,1.97
2022-11-27T23:08:43.653Z,1.94
2022-11-27T23:11:11.214Z,1.78
2022-11-27T23:13:37.972Z,1.91
2022-11-27T23:16:06.244Z,1.88
2022-11-27T23:18:33.393Z,1.81
2022-11-27T23:21:00.237Z,1.83
2022-11-27T23:23:26.996Z,1.80
2022-11-27T23:25:53.814Z,1.57
2022-11-27T23:28:20.536Z,1.77
2022-11-27T23:30:50.331Z,1.66
2022-11-27T23:33:25.956Z,1.63
2022-11-27T23:35:59.665Z,1.74
2022-11-27T23:38:26.484Z,1.76
2022-11-27T23:40:53.238Z,1.66
2022-11-27T23:43:20.077Z,1.76
2022-11-27T23:45:46.955Z,1.73
2022-11-27T23:48:13.912Z,1.77
2022-11-27T23:50:41.735Z,1.71
2022-11-27T23:53:08.730Z,1.75
2022-11-27T23:55:36.387Z,1.75
2022-11-27T23:58:03.195Z,1.82
